This is the latest recevied weather packets stored in our database for station/object KC8JWT. If no packets are shown the sender has not sent any weather packets the latest 10 day(s).
| Time | Temp. | Humidity | Pressure | Rain* | Wind** | Luminosity | Snow |
|---|---|---|---|---|---|---|---|
| 1778084202 | 11.11° C | 99% | 1011.5 hPa | 0 mm | - | 362 W/m² | - |
| 1778083898 | 11.11° C | 99% | 1011.8 hPa | 0 mm | - | 162 W/m² | - |
| 1778083596 | 11.11° C | 99% | 1011.9 hPa | 0 mm | - | 124 W/m² | - |
| 1778083292 | 11.11° C | 99% | 1011.5 hPa | 0 mm | - | 181 W/m² | - |
| 1778082992 | 11.11° C | 99% | 1011.5 hPa | 0 mm | - | 124 W/m² | - |
| 1778082689 | 10.56° C | 99% | 1011 hPa | 0 mm | - | 283 W/m² | - |
| 1778081550 | 10.56° C | 99% | 1011.1 hPa | 0 mm | - | 166 W/m² | - |
| 1778081247 | 10.56° C | 99% | 1010.7 hPa | 0 mm | - | 136 W/m² | - |
| 1778080944 | 10.56° C | 99% | 1010.9 hPa | 0 mm | - | 155 W/m² | - |
| 1778080644 | 10.56° C | 99% | 1010.6 hPa | 0 mm | - | 139 W/m² | - |
| 1778080340 | 10.56° C | 99% | 1010.7 hPa | 0 mm | - | 97 W/m² | - |
| 1778080036 | 10.56° C | 99% | 1010.7 hPa | 0 mm | - | 75 W/m² | - |
| 1778079733 | 10° C | 99% | 1010.5 hPa | 0 mm | - | 71 W/m² | - |
| 1778079430 | 10.56° C | 99% | 1010.2 hPa | 0 mm | - | 101 W/m² | - |
| 1778079126 | 10° C | 99% | 1010.3 hPa | 0 mm | - | 108 W/m² | - |
| 1778078824 | 10.56° C | 99% | 1010.3 hPa | 0 mm | - | 128 W/m² | - |
| 1778078521 | 10.56° C | 99% | 1010.1 hPa | 0 mm | - | 130 W/m² | - |
| 1778078219 | 10° C | 99% | 1010 hPa | 0 mm | - | 155 W/m² | - |
| 1778077916 | 10.56° C | 99% | 1009.8 hPa | 0 mm | - | 180 W/m² | - |
| 1778077615 | 10.56° C | 99% | 1009.9 hPa | 0 mm | - | 154 W/m² | - |
| 1778077312 | 10.56° C | 99% | 1009.9 hPa | 0 mm | - | 174 W/m² | - |
| 1778077009 | 10° C | 99% | 1009.9 hPa | 0 mm | - | 133 W/m² | - |
| 1778076708 | 10° C | 99% | 1010.1 hPa | 0 mm | - | 107 W/m² | - |
| 1778076405 | 10° C | 99% | 1010 hPa | 0 mm | - | 79 W/m² | - |
| 1778076102 | 10° C | 99% | 1009.6 hPa | 0 mm | - | 127 W/m² | - |
* Rain latest hour (hover to see other rain measurements)
** Current wind speed in m/s (hover to see current wind gust speed)